Due to severe server failure at the provider, not all demo sites are operational. Will take some days to rebuilt everything.

Demonstration site - Click on the  for more information

This is an optional block. Switch it on/off in your settings-file: $SITE['bannerTop'] = false; or $SITE['bannerBottom'] = false;

You can display ads, any other important text or photo’s using text / html or PHP code.

You can place one or more at the top and or bottom and it can all be different for content / size .



Visit our other weather sites:

Template documentation
and downloads

And another site



Nearby METAR Reports

   
EBAW - Antwerp
Updated: 23-05-2018 12:20
Partly Cloudy  
Partly Cloudy  
   Wind: NE 13 km/h
Wind: NE 13 km/h
Temperature: 19°C
Dew Point: 15°C
Humidity: 78%
Barometer: 1020 hPa
Clouds: Partly Cloudy
Visibility: More than 10 km
Cloud details: Partly Cloudy 1500 ft
EBAW 231020Z 04007KT 9999 SCT015 19/15 Q1020 NOSIG
EBLG - Liège
Updated: 23-05-2018 12:20
Few Clouds  
Few Clouds  
   Wind: NNE 9.3 km/h
Wind: NNE 9.3 km/h
Temperature: 19°C
Dew Point: 15°C
Humidity: 78%
Barometer: 1019 hPa
Clouds: Few Clouds
Visibility: More than 10 km
Cloud details: Few Clouds 1800 ft
EBLG 231020Z 03005KT 330V080 9999 FEW018 19/15 Q1019 NOSIG
EBCV - Mons/Bergen
Updated: 23-05-2018 12:25
Mostly Cloudy  
Mostly Cloudy  
   Wind: NNE 13 km/h
Wind: NNE 13 km/h
Temperature: 18°C
Dew Point: 15°C
Humidity: 83%
Barometer: 1020 hPa
Clouds: Mostly Cloudy
Visibility: More than 10 km
Cloud details: Mostly Cloudy 1900 ft
EBCV 231025Z AUTO 02007KT 9999 BKN019/// 18/15 Q1020 WHT
EHBK - Maastricht
Updated: 23-05-2018 12:25
Few Clouds  
Few Clouds  
   Wind: NE 7.4 km/h
Wind: NE 7.4 km/h
Temperature: 18°C
Dew Point: 15°C
Humidity: 83%
Barometer: 1019 hPa
Clouds: Few Clouds
Visibility: 6 km
Cloud details: Few Clouds 1000 ft
EHBK 231025Z AUTO 04004KT 350V080 6000 FEW010 18/15 Q1019 TEMPO 3000 SHRA RA BKN006 SCT060CB
ELLX - Luxemburg
Updated: 23-05-2018 12:20
Mostly Cloudy  
Mostly Cloudy  
   Wind: NE 14.8 km/h
Wind: NE 14.8 km/h
Temperature: 18°C
Dew Point: 14°C
Humidity: 78%
Barometer: 1019 hPa
Clouds: Mostly Cloudy
Visibility: More than 10 km
Cloud details: Few Clouds 1800 ft,
Mostly Cloudy 7000 ft
ELLX 231020Z 05008KT 360V070 9999 FEW018TCU BKN070 18/14 Q1019 NOSIG
EBOS - Oostende
Updated: 23-05-2018 12:20
Partly Cloudy  
Partly Cloudy  
   Wind: North 18.5 km/h
Wind: North 18.5 km/h
Temperature: 13°C
Dew Point: 11°C
Humidity: 88%
Barometer: 1021 hPa
Clouds: Partly Cloudy
Visibility: 6 km
Cloud details: Few Clouds 500 ft,
Partly Cloudy 800 ft
EBOS 231020Z 35010KT 6000 FEW005 SCT008 13/11 Q1021 TEMPO 4500 BKN007

Script developed by  Saratoga-weather.org Adapted for the template by  Weerstation Leuven

This is an optional block. Switch it on/off in your settings-file: $SITE['bannerTop'] = false; or $SITE['bannerBottom'] = false;

You can display ads, any other important text or photo’s using text / html or PHP code.

You can place one or more at the top and or bottom and it can all be different for content / size .